Time;durP1;ratioP1;P1;durP2;ratioP2;P2;SDS_P1;SDS_P2;PMS_P1;PMS_P2;Temp;Humidity;BMP_temperature;BMP_pressure;BME280_temperature;BME280_humidity;BME280_pressure;Samples;Min_cycle;Max_cycle;Signal;HPM_P1;HPM_P2
2023/01/10 00:00:25;;;;;;;7.13;2.55;;;;;;;6.08;99.03;99219.41;5132753;27;20056;-48
2023/01/10 00:02:52;;;;;;;3.97;2.10;;;;;;;6.09;99.19;99221.03;5131476;28;20058;-47
2023/01/10 00:05:18;;;;;;;5.20;2.38;;;;;;;6.09;98.59;99226.25;5131270;28;20023;-47
2023/01/10 00:07:44;;;;;;;9.80;3.35;;;;;;;6.09;99.68;99225.44;5131343;28;20015;-47
2023/01/10 00:10:11;;;;;;;6.25;1.98;;;;;;;6.09;98.92;99230.66;5131677;28;20114;-48
2023/01/10 00:15:21;;;;;;;6.90;2.40;;;;;;;6.12;99.51;99235.56;5132613;28;20126;-47
2023/01/10 00:17:47;;;;;;;5.00;2.60;;;;;;;6.13;99.51;99231.97;5132907;27;20393;-47
2023/01/10 00:20:14;;;;;;;3.83;1.80;;;;;;;6.13;99.50;99237.97;5130930;28;20023;-47
2023/01/10 00:22:39;;;;;;;4.70;2.13;;;;;;;6.15;99.23;99249.06;5132590;27;20076;-47
2023/01/10 00:25:05;;;;;;;7.32;3.97;;;;;;;6.13;99.27;99250.19;5116453;27;20035;-47
2023/01/10 00:27:31;;;;;;;6.70;1.88;;;;;;;6.04;98.95;99245.91;5136618;27;20092;-47
2023/01/10 00:30:00;;;;;;;7.15;3.33;;;;;;;5.99;98.88;99244.59;5136631;27;20500;-47
2023/01/10 00:32:26;;;;;;;9.90;4.00;;;;;;;5.95;98.97;99255.50;5136560;27;20393;-47
2023/01/10 00:34:51;;;;;;;10.23;4.45;;;;;;;5.90;98.07;99260.34;5136529;27;20031;-47
2023/01/10 00:37:17;;;;;;;9.02;3.67;;;;;;;5.88;98.74;99264.91;5135322;27;20113;-47
2023/01/10 00:39:43;;;;;;;7.15;3.40;;;;;;;5.80;98.39;99265.66;5136411;27;20560;-47
2023/01/10 00:44:54;;;;;;;9.15;3.13;;;;;;;5.90;98.62;99291.59;5136445;27;20034;-47
2023/01/10 00:47:20;;;;;;;8.50;3.05;;;;;;;5.93;98.93;99280.84;5136282;27;20019;-47
2023/01/10 00:49:45;;;;;;;8.80;2.97;;;;;;;5.97;99.35;99290.03;5136221;27;20031;-47
2023/01/10 00:52:12;;;;;;;4.97;2.42;;;;;;;6.01;99.21;99288.75;5134821;27;20027;-47
2023/01/10 00:54:37;;;;;;;3.15;2.47;;;;;;;6.07;99.29;99298.53;5134769;27;20031;-47
2023/01/10 00:57:03;;;;;;;8.85;2.22;;;;;;;6.12;99.61;99288.47;5134694;27;20042;-47
2023/01/10 00:59:29;;;;;;;6.75;2.58;;;;;;;6.12;99.62;99303.31;5134849;27;20110;-47
2023/01/10 01:01:54;;;;;;;6.25;2.22;;;;;;;6.12;98.82;99303.31;5136016;27;20504;-47
2023/01/10 01:04:21;;;;;;;4.30;2.10;;;;;;;6.13;99.09;99305.72;5169191;27;20404;-47
2023/01/10 01:06:47;;;;;;;7.05;2.00;;;;;;;6.16;99.53;99313.25;5135803;27;20023;-47
2023/01/10 01:09:14;;;;;;;5.32;2.33;;;;;;;6.17;98.76;99311.44;5135862;27;20023;-47
2023/01/10 01:11:39;;;;;;;7.13;1.95;;;;;;;6.16;98.85;99315.84;5135815;27;20050;-47
2023/01/10 01:14:05;;;;;;;7.43;2.60;;;;;;;6.15;98.68;99319.41;5135716;27;20433;-47
2023/01/10 01:16:31;;;;;;;6.13;2.80;;;;;;;6.16;98.79;99335.91;5134417;27;20023;-47
2023/01/10 01:18:57;;;;;;;8.80;2.30;;;;;;;6.16;99.06;99336.72;5135694;27;20023;-47
2023/01/10 01:21:27;;;;;;;6.60;2.08;;;;;;;6.15;98.56;99332.44;5134024;27;20043;-47
2023/01/10 01:23:57;;;;;;;7.60;2.13;;;;;;;6.14;98.68;99337.84;5134345;27;20026;-47
2023/01/10 01:26:23;;;;;;;3.80;1.88;;;;;;;6.11;99.05;99340.75;5134174;27;20091;-47
2023/01/10 01:28:50;;;;;;;5.63;2.03;;;;;;;6.07;98.59;99342.84;5134247;27;20042;-47
2023/01/10 01:31:15;;;;;;;8.77;3.03;;;;;;;6.05;99.26;99346.56;5134263;27;20031;-47
2023/01/10 01:33:41;;;;;;;9.00;3.45;;;;;;;6.02;98.70;99346.88;5134037;27;20080;-47
2023/01/10 01:36:11;;;;;;;7.95;2.90;;;;;;;6.00;99.04;99357.47;5133936;27;20108;-47
2023/01/10 01:38:38;;;;;;;8.07;2.83;;;;;;;6.00;99.29;99349.66;5134090;27;20454;-47
2023/01/10 01:41:55;;;;;;;8.50;2.97;;;;;;;6.02;99.12;99355.53;5133976;27;20062;-47
2023/01/10 01:44:06;;;;;;;6.47;2.92;;;;;;;6.04;99.67;99360.56;5134960;27;20496;-47
2023/01/10 01:46:36;;;;;;;7.18;2.60;;;;;;;6.01;99.39;99364.31;5133859;27;20046;-47
2023/01/10 01:49:05;;;;;;;8.90;2.63;;;;;;;5.98;99.36;99362.81;5133959;27;20396;-47
2023/01/10 01:51:33;;;;;;;7.35;2.38;;;;;;;5.96;99.13;99363.97;5135013;27;20027;-47
2023/01/10 01:54:06;;;;;;;6.88;2.33;;;;;;;5.91;98.81;99371.38;5135024;27;20083;-48
2023/01/10 01:56:41;;;;;;;5.82;2.20;;;;;;;5.86;99.27;99377.06;5134874;27;20039;-47
2023/01/10 01:59:15;;;;;;;10.05;2.30;;;;;;;5.83;99.60;99371.31;5134899;27;20055;-47
2023/01/10 02:01:45;;;;;;;7.72;2.35;;;;;;;5.79;98.98;99389.88;5134888;27;20023;-47
2023/01/10 02:04:16;;;;;;;8.27;2.65;;;;;;;5.78;99.12;99387.41;5134709;27;20462;-47
2023/01/10 02:06:43;;;;;;;6.13;2.35;;;;;;;5.81;99.59;99392.31;5134812;27;20041;-47
2023/01/10 02:09:24;;;;;;;8.38;2.42;;;;;;;5.79;99.76;99397.69;5133348;27;20023;-47
2023/01/10 02:11:50;;;;;;;6.93;2.40;;;;;;;5.75;99.48;99391.13;5134682;27;20027;-47
2023/01/10 02:14:16;;;;;;;5.88;2.25;;;;;;;5.71;99.33;99389.78;5134662;27;20493;-47
2023/01/10 02:16:42;;;;;;;5.40;1.85;;;;;;;5.69;99.78;99383.91;5134580;27;20042;-47
2023/01/10 02:19:28;;;;;;;9.02;2.00;;;;;;;5.62;99.08;99385.50;5134519;27;20019;-47
2023/01/10 02:22:40;;;;;;;10.40;2.40;;;;;;;5.55;98.87;99393.13;5132960;27;20409;-47
2023/01/10 02:25:34;;;;;;;11.25;2.20;;;;;;;5.51;98.90;99383.13;5134268;27;20039;-47
2023/01/10 02:28:10;;;;;;;13.50;2.50;;;;;;;5.51;99.00;99390.94;5133090;27;20489;-47
2023/01/10 02:31:03;;;;;;;6.95;2.63;;;;;;;5.52;99.30;99385.59;5134319;27;20035;-47
2023/01/10 02:33:30;;;;;;;8.48;2.22;;;;;;;5.54;99.08;99390.66;5134226;27;20023;-47
2023/01/10 02:36:09;;;;;;;11.85;2.50;;;;;;;5.53;99.34;99400.25;5132781;27;20542;-47
2023/01/10 02:38:59;;;;;;;8.00;1.75;;;;;;;5.55;99.51;99395.72;5134452;27;20034;-47
2023/01/10 02:41:47;;;;;;;7.97;2.25;;;;;;;5.55;99.50;99395.72;5134103;27;20038;-47
2023/01/10 02:44:29;;;;;;;8.30;2.03;;;;;;;5.52;99.16;99398.59;5133937;27;20493;-47
2023/01/10 02:46:55;;;;;;;5.78;1.95;;;;;;;5.53;98.96;99407.22;5132303;27;20413;-47
2023/01/10 02:49:21;;;;;;;10.18;2.33;;;;;;;5.52;99.54;99414.22;5133866;27;20031;-47
2023/01/10 02:51:47;;;;;;;4.63;1.65;;;;;;;5.52;99.31;99403.81;5132497;27;20019;-47
2023/01/10 02:54:26;;;;;;;11.30;2.53;;;;;;;5.50;99.39;99407.53;5132485;27;20038;-47
2023/01/10 02:57:34;;;;;;;8.63;1.85;;;;;;;5.47;99.32;99408.63;5133841;27;20486;-47
2023/01/10 03:00:05;;;;;;;7.05;1.50;;;;;;;5.47;99.27;99419.03;5099027;27;20564;-47
2023/01/10 03:02:51;;;;;;;8.95;2.00;;;;;;;5.39;98.99;99417.22;5133647;27;20030;-47
2023/01/10 03:05:32;;;;;;;7.47;1.50;;;;;;;5.30;98.79;99427.69;5132261;27;20035;-47
2023/01/10 03:08:01;;;;;;;6.25;2.00;;;;;;;5.28;98.33;99432.22;5133587;27;20034;-47
2023/01/10 03:10:34;;;;;;;9.82;2.25;;;;;;;5.27;98.58;99425.38;5132182;27;20066;-47
2023/01/10 03:13:08;;;;;;;8.48;1.85;;;;;;;5.28;98.67;99430.44;5133449;27;20011;-47
2023/01/10 03:15:38;;;;;;;8.05;1.67;;;;;;;5.27;98.83;99440.97;5133530;27;20035;-47
2023/01/10 03:18:12;;;;;;;7.15;1.55;;;;;;;5.17;97.64;99435.84;5133674;27;20022;-47
2023/01/10 03:20:41;;;;;;;9.68;1.73;;;;;;;5.16;97.46;99450.63;5131648;27;20083;-47
2023/01/10 03:23:09;;;;;;;6.40;1.80;;;;;;;5.17;98.03;99454.06;5133326;27;20118;-47
2023/01/10 03:25:39;;;;;;;10.68;2.20;;;;;;;5.18;97.50;99458.31;5131865;27;20073;-47
2023/01/10 03:28:09;;;;;;;8.75;2.00;;;;;;;5.18;97.24;99459.13;5133105;27;20054;-47
2023/01/10 03:30:48;;;;;;;8.88;2.10;;;;;;;5.11;96.60;99465.88;5133191;27;20018;-47
2023/01/10 03:33:20;;;;;;;7.95;2.30;;;;;;;4.99;96.77;99473.06;5133200;27;20501;-47
2023/01/10 03:36:21;;;;;;;10.82;2.95;;;;;;;4.89;96.40;99477.50;5133145;27;20075;-47
2023/01/10 03:38:55;;;;;;;7.35;2.10;;;;;;;4.77;97.02;99479.47;5133296;27;20118;-47
2023/01/10 03:41:33;;;;;;;7.40;2.40;;;;;;;4.65;96.62;99483.22;5133036;27;20113;-47
2023/01/10 03:47:05;;;;;;;12.88;3.08;;;;;;;4.51;96.63;99479.28;5132969;27;20159;-47
2023/01/10 03:49:34;;;;;;;11.10;3.08;;;;;;;4.44;97.41;99483.41;5132933;27;20034;-47
2023/01/10 03:52:02;;;;;;;9.50;2.10;;;;;;;4.40;97.53;99476.84;5132838;27;20098;-47
2023/01/10 03:54:28;;;;;;;9.85;1.70;;;;;;;4.38;97.81;99492.56;5132905;27;20462;-47
2023/01/10 03:56:54;;;;;;;9.05;2.20;;;;;;;4.38;98.64;99509.94;5131519;27;20054;-47
2023/01/10 03:59:25;;;;;;;8.95;1.80;;;;;;;4.49;99.06;99509.78;5132055;27;20054;-47
2023/01/10 04:01:54;;;;;;;7.97;1.70;;;;;;;4.59;99.50;99504.56;5132778;27;20032;-47
2023/01/10 04:04:20;;;;;;;6.10;1.52;;;;;;;4.57;99.29;99507.31;5131358;28;20395;-46
2023/01/10 04:06:46;;;;;;;4.53;1.60;;;;;;;4.47;98.68;99509.13;5132709;27;20023;-47
2023/01/10 04:09:12;;;;;;;6.15;1.73;;;;;;;4.37;98.59;99506.53;5131338;28;20023;-46
2023/01/10 04:11:37;;;;;;;9.32;1.75;;;;;;;4.29;98.71;99503.81;5131351;28;20392;-47
2023/01/10 04:14:03;;;;;;;9.93;2.08;;;;;;;4.19;98.53;99514.22;5132635;27;20024;-47
2023/01/10 04:16:29;;;;;;;8.77;1.77;;;;;;;4.09;97.88;99512.59;5132597;27;20030;-47
2023/01/10 04:18:55;;;;;;;12.63;2.38;;;;;;;4.02;97.61;99514.91;5132592;27;20024;-47
2023/01/10 04:21:20;;;;;;;9.88;1.88;;;;;;;4.01;98.04;99521.06;5130981;28;20138;-47
2023/01/10 04:23:46;;;;;;;8.85;2.22;;;;;;;4.13;98.67;99522.56;5114018;28;20033;-47
2023/01/10 04:26:12;;;;;;;4.25;1.85;;;;;;;4.36;99.83;99517.06;5131150;28;20031;-47
2023/01/10 04:28:37;;;;;;;7.40;2.92;;;;;;;4.58;99.53;99515.91;5132588;27;20106;-47
2023/01/10 04:31:03;;;;;;;7.57;2.10;;;;;;;4.77;100.00;99522.84;5132473;27;20023;-47
2023/01/10 04:33:29;;;;;;;6.25;1.85;;;;;;;4.78;99.24;99527.88;5132710;27;20026;-47
2023/01/10 04:35:55;;;;;;;11.05;2.22;;;;;;;4.71;98.49;99520.78;5132453;28;20031;-47
2023/01/10 04:38:21;;;;;;;5.85;2.53;;;;;;;4.60;98.59;99522.59;5132448;27;20058;-47
2023/01/10 04:40:54;;;;;;;8.93;2.42;;;;;;;4.49;98.00;99529.78;5132397;27;20054;-47
2023/01/10 04:43:20;;;;;;;8.68;2.53;;;;;;;4.39;98.49;99537.59;5132285;27;20106;-47
2023/01/10 04:45:46;;;;;;;7.10;2.90;;;;;;;4.39;98.28;99541.00;5131138;28;20473;-47
2023/01/10 04:48:11;;;;;;;9.00;2.63;;;;;;;4.41;98.55;99533.06;5131024;28;20027;-47
2023/01/10 04:50:37;;;;;;;10.80;2.85;;;;;;;4.39;97.97;99540.19;5130986;28;20063;-46
2023/01/10 04:53:02;;;;;;;11.18;2.78;;;;;;;4.38;98.44;99530.72;5132270;27;20098;-46
2023/01/10 04:55:28;;;;;;;8.20;2.63;;;;;;;4.40;98.56;99536.63;5130894;28;20023;-47
2023/01/10 04:57:54;;;;;;;10.02;2.63;;;;;;;4.43;98.33;99538.09;5130884;28;20034;-46
2023/01/10 05:00:20;;;;;;;8.02;2.45;;;;;;;4.48;98.07;99541.94;5130885;28;20262;-47
2023/01/10 05:02:45;;;;;;;7.78;2.88;;;;;;;4.52;98.59;99543.28;5130874;28;20026;-47
2023/01/10 05:05:12;;;;;;;7.30;2.55;;;;;;;4.52;98.96;99540.69;5132086;27;20030;-47
2023/01/10 05:07:39;;;;;;;9.68;3.42;;;;;;;4.56;98.63;99538.63;5130807;28;20050;-47
2023/01/10 05:10:07;;;;;;;8.52;2.63;;;;;;;4.55;99.21;99540.41;5132840;27;20031;-47
2023/01/10 05:12:33;;;;;;;9.88;2.05;;;;;;;4.53;98.80;99544.94;5134510;27;20111;-47
2023/01/10 05:14:59;;;;;;;6.93;2.13;;;;;;;4.43;98.32;99551.09;5135754;27;20039;-47
2023/01/10 05:17:25;;;;;;;8.05;2.60;;;;;;;4.39;97.72;99560.97;5136027;27;20033;-47
2023/01/10 05:19:51;;;;;;;13.25;2.63;;;;;;;4.43;98.11;99564.94;5134426;27;20034;-46
2023/01/10 05:22:16;;;;;;;11.27;2.15;;;;;;;4.53;98.30;99565.75;5135409;27;20051;-47
2023/01/10 05:24:42;;;;;;;6.22;2.30;;;;;;;4.56;98.56;99567.22;5135500;27;20055;-47
2023/01/10 05:27:08;;;;;;;7.30;2.20;;;;;;;4.53;98.17;99562.31;5134188;27;20031;-47
2023/01/10 05:29:33;;;;;;;8.02;2.13;;;;;;;4.50;98.31;99566.00;5134201;27;20015;-47
2023/01/10 05:31:59;;;;;;;12.70;3.10;;;;;;;4.49;97.79;99563.56;5168766;27;20405;-47
2023/01/10 05:34:25;;;;;;;9.95;3.10;;;;;;;4.46;97.77;99571.63;5134115;27;20167;-47
2023/01/10 05:36:51;;;;;;;9.05;2.75;;;;;;;4.41;98.07;99566.84;5133957;27;20059;-47
2023/01/10 05:39:16;;;;;;;9.80;2.78;;;;;;;4.38;97.58;99567.94;5134000;27;20023;-47
2023/01/10 05:41:43;;;;;;;7.90;3.00;;;;;;;4.30;97.19;99567.81;5168588;27;20031;-47
2023/01/10 05:44:08;;;;;;;8.00;3.15;;;;;;;4.26;97.74;99573.41;5135185;27;20019;-47
2023/01/10 05:46:34;;;;;;;7.30;2.75;;;;;;;4.27;97.88;99580.28;5135256;27;20370;-47
2023/01/10 05:49:00;;;;;;;7.10;2.60;;;;;;;4.30;98.51;99588.59;5135079;27;20031;-47
2023/01/10 05:51:25;;;;;;;13.52;3.05;;;;;;;4.41;99.02;99590.25;5135095;27;20020;-47
2023/01/10 05:53:51;;;;;;;7.78;2.30;;;;;;;4.56;100.00;99606.22;5135040;27;20015;-47
2023/01/10 05:56:17;;;;;;;14.57;3.03;;;;;;;4.66;100.00;99595.81;5134988;27;20476;-47
2023/01/10 05:58:43;;;;;;;8.38;2.42;;;;;;;4.73;100.00;99597.72;5133911;27;20084;-47
2023/01/10 06:01:09;;;;;;;8.20;3.00;;;;;;;4.84;100.00;99598.50;5134892;27;20088;-47
2023/01/10 06:03:35;;;;;;;18.85;2.97;;;;;;;4.92;100.00;99594.25;5133488;27;20016;-47
2023/01/10 06:06:02;;;;;;;12.35;3.38;;;;;;;5.01;99.88;99603.00;5134777;27;20031;-47
2023/01/10 06:08:28;;;;;;;15.63;3.13;;;;;;;5.06;100.00;99599.97;5134730;27;20019;-47
2023/01/10 06:10:54;;;;;;;17.40;3.55;;;;;;;5.09;100.00;99599.66;5134671;27;20015;-47
2023/01/10 06:13:20;;;;;;;7.70;2.35;;;;;;;5.07;99.96;99594.63;5133485;27;20027;-47
2023/01/10 06:15:46;;;;;;;7.55;2.70;;;;;;;4.92;99.73;99602.03;5134804;27;20031;-47
2023/01/10 06:18:12;;;;;;;8.20;2.70;;;;;;;4.72;98.57;99595.25;5133216;27;20168;-47
2023/01/10 06:20:39;;;;;;;7.20;2.88;;;;;;;4.62;98.44;99605.66;5134246;27;20122;-47
2023/01/10 06:23:05;;;;;;;17.38;3.70;;;;;;;4.58;98.46;99606.91;5132413;27;20067;-47
2023/01/10 06:25:32;;;;;;;11.60;3.63;;;;;;;4.56;98.33;99612.22;5134272;27;20110;-47
2023/01/10 06:27:58;;;;;;;9.80;3.10;;;;;;;4.50;98.65;99607.59;5133039;27;20020;-47
2023/01/10 06:30:24;;;;;;;18.25;5.00;;;;;;;4.42;98.13;99623.06;5134369;27;20038;-47
2023/01/10 06:32:50;;;;;;;7.05;3.45;;;;;;;4.33;97.46;99629.09;5132884;27;20031;-47
2023/01/10 06:35:16;;;;;;;9.35;3.40;;;;;;;4.18;97.32;99642.47;5134197;27;20051;-47
2023/01/10 06:37:43;;;;;;;9.98;4.03;;;;;;;4.15;97.84;99650.53;5134139;27;20499;-47
2023/01/10 06:40:09;;;;;;;11.00;3.50;;;;;;;4.17;98.34;99645.22;5132787;27;20020;-47
2023/01/10 06:42:35;;;;;;;10.55;3.70;;;;;;;4.29;99.21;99645.91;5133075;27;20106;-47
2023/01/10 06:45:01;;;;;;;10.68;3.53;;;;;;;4.38;99.16;99643.28;5133898;27;20459;-47
2023/01/10 06:47:27;;;;;;;12.55;3.65;;;;;;;4.51;99.21;99639.63;5134023;27;20038;-47
2023/01/10 06:49:52;;;;;;;13.02;4.03;;;;;;;4.63;99.53;99637.69;5132555;27;20076;-47
2023/01/10 06:52:18;;;;;;;8.48;4.03;;;;;;;4.71;98.82;99638.66;5133833;27;20076;-47
2023/01/10 06:54:44;;;;;;;11.80;4.72;;;;;;;4.80;98.86;99635.19;5133802;27;20464;-47
2023/01/10 06:57:09;;;;;;;12.40;3.88;;;;;;;4.85;98.65;99644.34;5133949;27;20068;-47
2023/01/10 06:59:35;;;;;;;8.82;3.55;;;;;;;4.85;98.52;99646.97;5133750;27;20519;-47
2023/01/10 07:02:01;;;;;;;12.43;3.20;;;;;;;4.82;97.67;99657.66;5134173;27;20485;-47
2023/01/10 07:04:26;;;;;;;7.32;2.40;;;;;;;4.74;97.14;99659.16;5166979;27;20091;-47
2023/01/10 07:06:53;;;;;;;7.95;3.10;;;;;;;4.75;97.66;99666.00;5132293;27;20396;-47
2023/01/10 07:09:18;;;;;;;12.23;3.35;;;;;;;4.84;97.61;99663.53;5132247;27;20019;-47
2023/01/10 07:11:44;;;;;;;7.78;2.97;;;;;;;4.88;97.75;99672.69;5133742;27;20023;-47
2023/01/10 07:14:10;;;;;;;9.05;3.20;;;;;;;4.91;97.13;99662.00;5133530;27;20027;-47
2023/01/10 07:16:35;;;;;;;7.53;2.65;;;;;;;4.95;96.69;99674.59;5133467;27;20023;-47
2023/01/10 07:19:01;;;;;;;10.38;2.58;;;;;;;5.03;96.61;99673.91;5133461;27;20109;-47
2023/01/10 07:21:27;;;;;;;9.40;3.13;;;;;;;5.09;97.04;99675.94;5131872;27;20042;-47
2023/01/10 07:23:53;;;;;;;11.90;3.53;;;;;;;5.19;96.40;99670.69;5131935;27;20464;-47
2023/01/10 07:26:18;;;;;;;9.65;4.00;;;;;;;5.23;95.94;99668.66;5133248;27;20031;-47
2023/01/10 07:28:51;;;;;;;12.40;3.08;;;;;;;5.32;95.59;99673.81;5131877;27;20031;-47
2023/01/10 07:31:19;;;;;;;12.20;2.60;;;;;;;5.41;94.77;99677.34;5131887;27;20027;-47
2023/01/10 07:33:45;;;;;;;8.23;3.15;;;;;;;5.48;93.99;99678.44;5131783;27;20023;-47
2023/01/10 07:36:11;;;;;;;10.30;4.47;;;;;;;5.57;93.22;99671.53;5131767;27;20031;-47
2023/01/10 07:38:37;;;;;;;9.70;3.28;;;;;;;5.68;93.56;99673.97;5133006;27;20508;-47
2023/01/10 07:41:04;;;;;;;10.82;3.28;;;;;;;5.75;92.67;99676.81;5131768;27;20049;-47
2023/01/10 07:43:30;;;;;;;8.77;3.50;;;;;;;5.78;92.16;99679.94;5131670;27;20110;-47
2023/01/10 07:46:03;;;;;;;10.73;3.60;;;;;;;5.61;90.68;99678.09;5132880;27;20030;-47
2023/01/10 07:48:29;;;;;;;15.15;3.65;;;;;;;5.63;92.01;99678.78;5133309;27;20031;-47
2023/01/10 07:50:59;;;;;;;13.65;3.38;;;;;;;6.06;92.75;99681.75;5132894;27;20030;-47
2023/01/10 07:53:27;;;;;;;12.82;4.10;;;;;;;6.64;92.01;99675.28;5132900;27;20024;-47
2023/01/10 07:55:52;;;;;;;11.20;3.83;;;;;;;7.19;91.49;99675.03;5131435;27;20038;-47
2023/01/10 07:58:18;;;;;;;9.98;3.88;;;;;;;7.51;89.34;99673.59;5131533;27;20023;-47
2023/01/10 08:00:45;;;;;;;10.63;3.47;;;;;;;7.75;88.96;99681.53;5131465;28;20049;-47
2023/01/10 08:03:11;;;;;;;14.90;3.80;;;;;;;7.82;87.80;99689.56;5131432;28;20433;-47
2023/01/10 08:05:37;;;;;;;10.80;3.45;;;;;;;7.60;88.18;99685.69;5132655;27;20039;-47
2023/01/10 08:08:05;;;;;;;14.45;4.00;;;;;;;7.36;88.83;99691.63;5131456;28;20027;-47
2023/01/10 08:10:33;;;;;;;17.73;4.85;;;;;;;7.15;89.47;99695.41;5132698;27;20103;-47
2023/01/10 08:12:59;;;;;;;22.92;5.20;;;;;;;6.92;89.87;99700.31;5132604;27;20392;-47
2023/01/10 08:15:24;;;;;;;19.30;4.80;;;;;;;6.67;89.91;99703.69;5131503;28;20027;-46
2023/01/10 08:17:50;;;;;;;22.40;5.57;;;;;;;6.47;90.66;99698.63;5132620;27;20061;-47
2023/01/10 08:20:16;;;;;;;20.75;5.13;;;;;;;6.30;91.30;99697.66;5132736;27;20031;-47
2023/01/10 08:22:42;;;;;;;16.42;5.22;;;;;;;6.38;91.71;99710.75;5132684;27;20485;-47
2023/01/10 08:25:08;;;;;;;16.38;5.05;;;;;;;6.59;92.65;99707.84;5131145;28;20373;-47
2023/01/10 08:27:34;;;;;;;27.98;5.57;;;;;;;6.79;92.40;99707.69;5132476;27;20076;-47
2023/01/10 08:29:59;;;;;;;15.45;4.38;;;;;;;7.02;92.83;99702.81;5131320;28;20027;-47
2023/01/10 08:32:25;;;;;;;10.50;5.55;;;;;;;7.23;93.41;99707.72;5132403;27;20019;-47
2023/01/10 08:34:51;;;;;;;19.90;4.97;;;;;;;7.63;93.21;99708.91;5131105;28;20062;-47
2023/01/10 08:37:16;;;;;;;24.15;4.90;;;;;;;8.13;92.28;99705.53;5132382;28;20019;-47
2023/01/10 08:39:42;;;;;;;21.52;4.68;;;;;;;8.78;90.43;99709.25;5165650;27;20027;-48
2023/01/10 08:42:08;;;;;;;69.60;7.65;;;;;;;9.31;89.61;99696.59;5131058;28;20026;-48
2023/01/10 08:44:33;;;;;;;54.33;8.77;;;;;;;10.39;89.23;99688.13;5130972;27;20032;-47
2023/01/10 08:46:59;;;;;;;31.23;5.70;;;;;;;11.42;85.78;99683.31;5117836;27;20408;-48
2023/01/10 08:49:25;;;;;;;33.72;7.35;;;;;;;11.50;83.25;99678.75;5136343;27;20499;-47
2023/01/10 08:51:50;;;;;;;60.70;8.23;;;;;;;11.46;82.84;99680.13;5136189;27;20019;-47
2023/01/10 08:54:16;;;;;;;21.00;4.90;;;;;;;11.71;82.57;99690.34;5136189;27;20110;-48
2023/01/10 08:56:42;;;;;;;20.27;4.90;;;;;;;12.38;81.23;99687.53;5134815;27;20110;-45
2023/01/10 08:59:07;;;;;;;26.83;5.15;;;;;;;13.09;79.23;99688.53;5136036;27;20106;-45
2023/01/10 09:01:33;;;;;;;18.25;4.68;;;;;;;13.72;77.47;99678.81;5136009;27;20071;-45
2023/01/10 09:03:59;;;;;;;16.35;4.78;;;;;;;14.30;75.97;99675.72;5135958;27;20027;-45
2023/01/10 09:06:25;;;;;;;19.35;4.72;;;;;;;14.81;74.34;99666.50;5135991;27;20083;-45
2023/01/10 09:08:51;;;;;;;9.65;3.70;;;;;;;15.27;71.61;99662.16;5135894;27;20046;-45
2023/01/10 09:11:16;;;;;;;21.17;4.95;;;;;;;15.84;70.68;99655.28;5134684;27;20382;-45
2023/01/10 09:13:42;;;;;;;9.40;4.00;;;;;;;16.53;67.97;99661.59;5136080;27;20031;-45
2023/01/10 09:16:08;;;;;;;12.52;3.45;;;;;;;17.08;67.05;99657.50;5134442;27;20111;-46
2023/01/10 09:18:34;;;;;;;15.65;4.07;;;;;;;17.55;63.38;99661.28;5135731;27;20019;-46
2023/01/10 09:21:01;;;;;;;8.30;3.15;;;;;;;17.72;60.20;99666.00;5135511;27;20039;-46
2023/01/10 09:23:27;;;;;;;14.23;3.90;;;;;;;17.56;56.94;99662.09;5134313;27;20023;-46
2023/01/10 09:25:54;;;;;;;8.95;3.00;;;;;;;17.33;55.07;99668.09;5135506;27;20374;-46
2023/01/10 09:28:23;;;;;;;22.02;5.10;;;;;;;16.53;53.70;99674.84;5135599;27;20023;-46
2023/01/10 09:30:49;;;;;;;26.08;5.80;;;;;;;16.05;52.02;99679.81;5135469;27;20438;-46
2023/01/10 09:33:15;;;;;;;210.63;25.05;;;;;;;15.68;53.80;99677.72;5134137;27;20019;-45
2023/01/10 09:35:42;;;;;;;335.48;39.30;;;;;;;15.57;51.95;99676.53;5135375;27;20047;-46
2023/01/10 09:38:11;;;;;;;113.32;14.43;;;;;;;15.71;52.51;99674.63;5135336;27;20094;-46
2023/01/10 09:41:01;;;;;;;56.60;9.82;;;;;;;15.80;52.50;99675.25;5116816;27;20031;-45
2023/01/10 09:43:48;;;;;;;283.05;36.17;;;;;;;16.12;53.38;99673.47;5135235;27;20027;-45
2023/01/10 09:46:25;;;;;;;103.50;15.55;;;;;;;16.53;49.74;99682.78;5135239;27;20058;-45
2023/01/10 09:49:05;;;;;;;123.63;17.10;;;;;;;16.23;49.15;99698.47;5135383;27;20027;-46
2023/01/10 09:51:41;;;;;;;75.35;10.43;;;;;;;16.13;48.94;99698.91;5135038;27;20122;-46
2023/01/10 09:54:27;;;;;;;154.32;20.02;;;;;;;16.09;49.73;99695.06;5133798;27;20027;-45
2023/01/10 09:56:54;;;;;;;158.40;20.65;;;;;;;15.99;46.70;99697.38;5133899;27;20035;-45
2023/01/10 09:59:30;;;;;;;215.73;30.83;;;;;;;15.61;48.21;99703.38;5133970;27;20023;-45
2023/01/10 10:02:14;;;;;;;114.32;18.08;;;;;;;16.02;47.57;99699.59;5134954;27;20035;-45
2023/01/10 10:04:40;;;;;;;56.90;9.55;;;;;;;16.37;46.04;99702.66;5134830;27;20157;-46
2023/01/10 10:07:13;;;;;;;167.63;23.70;;;;;;;16.16;46.60;99697.72;5133756;27;20110;-46
2023/01/10 10:09:39;;;;;;;44.35;7.00;;;;;;;16.07;44.27;99702.41;5133480;27;20114;-46
2023/01/10 10:12:23;;;;;;;123.70;17.50;;;;;;;15.81;44.90;99705.19;5133334;27;20080;-45
2023/01/10 10:15:02;;;;;;;70.45;11.55;;;;;;;16.02;46.00;99699.59;5133334;27;20128;-46
2023/01/10 10:18:03;;;;;;;456.02;65.65;;;;;;;16.57;45.37;99699.88;5134503;27;20023;-45
2023/01/10 10:20:41;;;;;;;269.38;38.60;;;;;;;16.93;43.43;99701.09;5109937;27;20051;-46
2023/01/10 10:23:10;;;;;;;317.70;43.65;;;;;;;17.25;42.66;99694.91;5133184;27;20401;-45
2023/01/10 10:25:58;;;;;;;178.00;24.33;;;;;;;17.53;43.16;99699.72;5134317;27;20155;-46
2023/01/10 10:28:55;;;;;;;70.35;9.95;;;;;;;17.97;43.11;99700.47;5133162;27;20027;-46
2023/01/10 10:31:40;;;;;;;46.42;8.85;;;;;;;18.34;41.54;99705.69;5151087;27;20523;-46
2023/01/10 10:34:23;;;;;;;61.40;9.25;;;;;;;17.74;40.18;99707.22;5134246;27;20397;-46
2023/01/10 10:37:14;;;;;;;44.83;7.68;;;;;;;17.64;40.66;99696.31;5132858;27;20031;-46
2023/01/10 10:39:43;;;;;;;49.58;8.32;;;;;;;17.86;39.79;99696.69;5123035;27;20088;-46
2023/01/10 10:42:14;;;;;;;78.15;11.57;;;;;;;18.13;40.03;99688.41;5132730;27;20489;-46
2023/01/10 10:44:51;;;;;;;38.05;5.38;;;;;;;18.04;38.31;99695.88;5134019;27;20023;-46
2023/01/10 10:47:20;;;;;;;33.95;6.97;;;;;;;17.86;39.66;99677.31;5134308;27;20109;-46
2023/01/10 10:49:55;;;;;;;36.92;6.35;;;;;;;18.07;40.37;99681.31;5133912;27;20027;-46
2023/01/10 10:52:25;;;;;;;22.95;4.75;;;;;;;18.20;39.58;99667.06;5133881;27;20023;-46
2023/01/10 10:54:52;;;;;;;24.55;5.40;;;;;;;18.09;36.92;99658.00;5133856;27;20110;-46
2023/01/10 10:57:23;;;;;;;7.28;2.25;;;;;;;18.03;37.09;99657.06;5133760;27;20023;-46
2023/01/10 10:59:49;;;;;;;23.20;4.07;;;;;;;18.15;39.04;99651.81;5133791;27;20051;-46
2023/01/10 11:02:23;;;;;;;19.08;3.70;;;;;;;18.74;39.37;99634.09;5115548;27;20069;-46
2023/01/10 11:04:50;;;;;;;12.52;3.22;;;;;;;19.22;38.54;99634.94;5132262;27;20113;-44
2023/01/10 11:07:17;;;;;;;26.63;4.05;;;;;;;19.16;37.64;99622.56;5115134;27;20378;-44
2023/01/10 11:10:07;;;;;;;228.15;29.02;;;;;;;19.14;35.44;99624.66;5133247;27;20098;-44
2023/01/10 11:12:33;;;;;;;26.00;4.28;;;;;;;19.23;34.51;99612.59;5132585;27;20538;-44
2023/01/10 11:15:00;;;;;;;44.53;8.18;;;;;;;19.86;35.55;99605.63;5133473;27;20031;-44
2023/01/10 11:17:29;;;;;;;79.30;10.25;;;;;;;20.47;35.34;99600.50;5133677;27;20027;-44
2023/01/10 11:19:59;;;;;;;217.55;28.80;;;;;;;20.50;34.45;99602.72;5132021;27;20022;-44
2023/01/10 11:22:28;;;;;;;41.47;7.38;;;;;;;20.74;34.37;99598.03;5132964;27;20450;-44
2023/01/10 11:24:57;;;;;;;34.80;5.03;;;;;;;20.80;32.00;99592.75;5133185;27;20019;-44
2023/01/10 11:27:27;;;;;;;41.08;5.80;;;;;;;20.58;33.78;99587.34;5133195;27;20019;-45
2023/01/10 11:30:02;;;;;;;42.78;5.63;;;;;;;20.13;34.71;99579.16;5131941;27;20047;-44
2023/01/10 11:32:51;;;;;;;44.72;7.47;;;;;;;20.31;36.11;99574.66;5131800;27;20501;-44
2023/01/10 11:35:22;;;;;;;57.35;8.93;;;;;;;20.26;33.69;99567.41;5133160;27;20034;-44
2023/01/10 11:38:04;;;;;;;18.33;3.40;;;;;;;20.13;33.50;99573.03;5131804;27;20023;-44
2023/01/10 11:40:36;;;;;;;25.35;3.65;;;;;;;20.32;34.30;99576.25;5133046;27;20396;-44
2023/01/10 11:43:28;;;;;;;17.20;3.20;;;;;;;19.30;35.47;99572.56;5133155;27;20549;-44
2023/01/10 11:46:01;;;;;;;167.75;22.80;;;;;;;18.25;34.43;99567.03;5132964;27;20072;-44
2023/01/10 11:48:44;;;;;;;49.58;7.38;;;;;;;17.75;35.10;99565.47;5132034;27;20031;-44
2023/01/10 11:51:20;;;;;;;327.15;42.15;;;;;;;17.79;35.82;99563.19;5132969;27;20030;-44
2023/01/10 11:53:50;;;;;;;181.55;22.60;;;;;;;17.76;35.26;99561.78;5132876;27;20023;-44